sensor_id;sensor_type;location;lat;lon;timestamp;temperature;humidity
30467;DHT22;17258;52.560;13.046;2023-06-22T00:01:19;25.50;50.20
30467;DHT22;17258;52.560;13.046;2023-06-22T00:11:20;25.40;50.40
30467;DHT22;17258;52.560;13.046;2023-06-22T00:21:21;25.20;50.50
30467;DHT22;17258;52.560;13.046;2023-06-22T00:31:22;25.10;50.80
30467;DHT22;17258;52.560;13.046;2023-06-22T00:41:22;25.00;50.90
30467;DHT22;17258;52.560;13.046;2023-06-22T00:51:23;24.90;51.10
30467;DHT22;17258;52.560;13.046;2023-06-22T01:01:24;24.80;51.30
30467;DHT22;17258;52.560;13.046;2023-06-22T01:11:47;24.60;51.40
30467;DHT22;17258;52.560;13.046;2023-06-22T01:21:55;24.50;52.30
30467;DHT22;17258;52.560;13.046;2023-06-22T01:31:57;24.40;51.70
30467;DHT22;17258;52.560;13.046;2023-06-22T01:41:58;24.30;51.80
30467;DHT22;17258;52.560;13.046;2023-06-22T01:52:00;24.20;51.90
30467;DHT22;17258;52.560;13.046;2023-06-22T02:02:04;24.10;52.80
30467;DHT22;17258;52.560;13.046;2023-06-22T02:12:11;24.00;52.50
30467;DHT22;17258;52.560;13.046;2023-06-22T02:22:13;24.00;52.50
30467;DHT22;17258;52.560;13.046;2023-06-22T02:32:16;23.80;52.80
30467;DHT22;17258;52.560;13.046;2023-06-22T02:42:18;23.80;52.90
30467;DHT22;17258;52.560;13.046;2023-06-22T02:52:20;23.70;52.90
30467;DHT22;17258;52.560;13.046;2023-06-22T03:02:21;23.70;53.20
30467;DHT22;17258;52.560;13.046;2023-06-22T03:12:25;23.60;53.40
30467;DHT22;17258;52.560;13.046;2023-06-22T03:22:26;23.70;53.70
30467;DHT22;17258;52.560;13.046;2023-06-22T03:32:26;23.70;53.70
30467;DHT22;17258;52.560;13.046;2023-06-22T03:42:28;23.70;53.80
30467;DHT22;17258;52.560;13.046;2023-06-22T03:52:29;23.70;53.90
30467;DHT22;17258;52.560;13.046;2023-06-22T04:02:30;23.80;54.20
30467;DHT22;17258;52.560;13.046;2023-06-22T04:12:31;23.80;54.30
30467;DHT22;17258;52.560;13.046;2023-06-22T04:22:32;23.80;54.50
30467;DHT22;17258;52.560;13.046;2023-06-22T04:32:33;24.00;54.80
30467;DHT22;17258;52.560;13.046;2023-06-22T04:42:38;24.10;55.00
30467;DHT22;17258;52.560;13.046;2023-06-22T04:52:39;24.20;55.20
30467;DHT22;17258;52.560;13.046;2023-06-22T05:02:40;24.40;55.40
30467;DHT22;17258;52.560;13.046;2023-06-22T05:12:41;24.60;55.50
30467;DHT22;17258;52.560;13.046;2023-06-22T05:22:42;24.80;55.50
30467;DHT22;17258;52.560;13.046;2023-06-22T05:32:43;25.10;55.50
30467;DHT22;17258;52.560;13.046;2023-06-22T05:42:44;25.40;55.50
30467;DHT22;17258;52.560;13.046;2023-06-22T05:52:47;25.60;55.70
30467;DHT22;17258;52.560;13.046;2023-06-22T06:02:48;25.90;55.80
30467;DHT22;17258;52.560;13.046;2023-06-22T06:12:52;26.30;55.90
30467;DHT22;17258;52.560;13.046;2023-06-22T06:22:58;26.70;55.90
30467;DHT22;17258;52.560;13.046;2023-06-22T06:33:08;27.00;55.50
30467;DHT22;17258;52.560;13.046;2023-06-22T06:43:09;27.40;55.20
30467;DHT22;17258;52.560;13.046;2023-06-22T06:53:10;27.80;55.20
30467;DHT22;17258;52.560;13.046;2023-06-22T07:03:13;28.10;54.80
30467;DHT22;17258;52.560;13.046;2023-06-22T07:13:18;28.40;53.90
30467;DHT22;17258;52.560;13.046;2023-06-22T07:23:19;28.70;53.00
30467;DHT22;17258;52.560;13.046;2023-06-22T07:33:22;28.90;52.50
30467;DHT22;17258;52.560;13.046;2023-06-22T07:43:26;29.10;52.00
30467;DHT22;17258;52.560;13.046;2023-06-22T07:53:29;29.20;51.80
30467;DHT22;17258;52.560;13.046;2023-06-22T08:03:30;29.50;51.60
30467;DHT22;17258;52.560;13.046;2023-06-22T08:13:31;29.70;51.30
30467;DHT22;17258;52.560;13.046;2023-06-22T08:23:37;30.00;50.90
30467;DHT22;17258;52.560;13.046;2023-06-22T08:33:41;30.20;50.60
30467;DHT22;17258;52.560;13.046;2023-06-22T08:43:49;30.50;50.00
30467;DHT22;17258;52.560;13.046;2023-06-22T08:53:52;30.60;49.50
30467;DHT22;17258;52.560;13.046;2023-06-22T09:03:53;30.80;49.40
30467;DHT22;17258;52.560;13.046;2023-06-22T09:13:58;31.00;49.70
30467;DHT22;17258;52.560;13.046;2023-06-22T09:24:02;31.30;49.00
30467;DHT22;17258;52.560;13.046;2023-06-22T09:34:05;31.60;48.40
30467;DHT22;17258;52.560;13.046;2023-06-22T09:44:06;31.80;47.70
30467;DHT22;17258;52.560;13.046;2023-06-22T09:54:07;32.00;47.60
30467;DHT22;17258;52.560;13.046;2023-06-22T10:04:07;32.30;47.50
30467;DHT22;17258;52.560;13.046;2023-06-22T10:14:08;32.60;46.90
30467;DHT22;17258;52.560;13.046;2023-06-22T10:24:12;32.80;46.90
30467;DHT22;17258;52.560;13.046;2023-06-22T10:34:16;33.00;46.40
30467;DHT22;17258;52.560;13.046;2023-06-22T10:44:19;33.30;46.30
30467;DHT22;17258;52.560;13.046;2023-06-22T10:54:21;33.50;47.30
30467;DHT22;17258;52.560;13.046;2023-06-22T11:04:21;34.30;45.80
30467;DHT22;17258;52.560;13.046;2023-06-22T11:14:22;34.50;44.70
30467;DHT22;17258;52.560;13.046;2023-06-22T11:24:23;34.60;44.60
30467;DHT22;17258;52.560;13.046;2023-06-22T11:34:24;34.70;44.20
30467;DHT22;17258;52.560;13.046;2023-06-22T11:44:25;34.80;43.30
30467;DHT22;17258;52.560;13.046;2023-06-22T11:54:25;34.90;43.40
30467;DHT22;17258;52.560;13.046;2023-06-22T12:04:26;35.00;43.30
30467;DHT22;17258;52.560;13.046;2023-06-22T12:14:27;35.00;43.00
30467;DHT22;17258;52.560;13.046;2023-06-22T12:24:27;35.20;43.50
30467;DHT22;17258;52.560;13.046;2023-06-22T12:34:29;35.60;43.10
30467;DHT22;17258;52.560;13.046;2023-06-22T12:44:30;35.90;42.40
30467;DHT22;17258;52.560;13.046;2023-06-22T12:54:33;36.10;41.70
30467;DHT22;17258;52.560;13.046;2023-06-22T13:04:37;36.20;41.50
30467;DHT22;17258;52.560;13.046;2023-06-22T13:14:37;36.40;41.40
30467;DHT22;17258;52.560;13.046;2023-06-22T13:24:38;36.60;40.80
30467;DHT22;17258;52.560;13.046;2023-06-22T13:34:41;36.70;40.50
30467;DHT22;17258;52.560;13.046;2023-06-22T13:44:43;36.80;40.10
30467;DHT22;17258;52.560;13.046;2023-06-22T13:54:52;36.90;39.90
30467;DHT22;17258;52.560;13.046;2023-06-22T14:04:59;37.00;39.30
30467;DHT22;17258;52.560;13.046;2023-06-22T14:15:03;37.10;39.20
30467;DHT22;17258;52.560;13.046;2023-06-22T14:25:04;37.20;39.50
30467;DHT22;17258;52.560;13.046;2023-06-22T14:35:06;37.40;39.80
30467;DHT22;17258;52.560;13.046;2023-06-22T14:45:07;37.80;39.40
30467;DHT22;17258;52.560;13.046;2023-06-22T14:55:10;38.00;38.80
30467;DHT22;17258;52.560;13.046;2023-06-22T15:05:14;38.10;38.10
30467;DHT22;17258;52.560;13.046;2023-06-22T15:15:20;38.00;37.80
30467;DHT22;17258;52.560;13.046;2023-06-22T15:25:21;37.80;37.20
30467;DHT22;17258;52.560;13.046;2023-06-22T15:35:28;37.60;37.30
30467;DHT22;17258;52.560;13.046;2023-06-22T15:45:31;37.30;37.30
30467;DHT22;17258;52.560;13.046;2023-06-22T15:55:41;37.10;37.20
30467;DHT22;17258;52.560;13.046;2023-06-22T16:05:42;36.80;36.30
30467;DHT22;17258;52.560;13.046;2023-06-22T16:15:46;36.40;37.00
30467;DHT22;17258;52.560;13.046;2023-06-22T16:25:47;36.10;37.30
30467;DHT22;17258;52.560;13.046;2023-06-22T16:35:47;35.90;37.50
30467;DHT22;17258;52.560;13.046;2023-06-22T16:45:51;35.90;37.70
30467;DHT22;17258;52.560;13.046;2023-06-22T16:56:03;35.70;37.30
30467;DHT22;17258;52.560;13.046;2023-06-22T17:06:07;35.40;37.00
30467;DHT22;17258;52.560;13.046;2023-06-22T17:16:14;34.90;37.90
30467;DHT22;17258;52.560;13.046;2023-06-22T17:26:16;34.80;37.30
30467;DHT22;17258;52.560;13.046;2023-06-22T17:36:17;34.50;37.60
30467;DHT22;17258;52.560;13.046;2023-06-22T17:46:21;34.10;37.50
30467;DHT22;17258;52.560;13.046;2023-06-22T17:56:26;33.90;37.70
30467;DHT22;17258;52.560;13.046;2023-06-22T18:06:27;33.50;37.70
30467;DHT22;17258;52.560;13.046;2023-06-22T18:16:32;33.20;37.90
30467;DHT22;17258;52.560;13.046;2023-06-22T18:26:34;33.00;38.10
30467;DHT22;17258;52.560;13.046;2023-06-22T18:36:46;32.80;38.30
30467;DHT22;17258;52.560;13.046;2023-06-22T18:46:51;32.50;38.40
30467;DHT22;17258;52.560;13.046;2023-06-22T18:56:57;32.30;38.50
30467;DHT22;17258;52.560;13.046;2023-06-22T19:07:02;32.00;38.60
30467;DHT22;17258;52.560;13.046;2023-06-22T19:17:06;31.80;38.70
30467;DHT22;17258;52.560;13.046;2023-06-22T19:27:06;31.60;38.90
30467;DHT22;17258;52.560;13.046;2023-06-22T19:37:14;31.40;39.10
30467;DHT22;17258;52.560;13.046;2023-06-22T19:47:15;31.20;39.10
30467;DHT22;17258;52.560;13.046;2023-06-22T19:57:19;31.10;39.30
30467;DHT22;17258;52.560;13.046;2023-06-22T20:07:34;30.90;39.60
30467;DHT22;17258;52.560;13.046;2023-06-22T20:17:45;30.60;40.50
30467;DHT22;17258;52.560;13.046;2023-06-22T20:27:48;30.10;40.40
30467;DHT22;17258;52.560;13.046;2023-06-22T20:37:51;29.50;42.30
30467;DHT22;17258;52.560;13.046;2023-06-22T20:47:57;28.60;42.40
30467;DHT22;17258;52.560;13.046;2023-06-22T20:57:58;27.70;43.30
30467;DHT22;17258;52.560;13.046;2023-06-22T21:07:59;27.20;43.90
30467;DHT22;17258;52.560;13.046;2023-06-22T21:17:59;26.60;44.40
30467;DHT22;17258;52.560;13.046;2023-06-22T21:28:00;26.20;45.10
30467;DHT22;17258;52.560;13.046;2023-06-22T21:38:01;25.90;45.80
30467;DHT22;17258;52.560;13.046;2023-06-22T21:48:05;25.70;46.50
30467;DHT22;17258;52.560;13.046;2023-06-22T21:58:08;25.50;47.00
30467;DHT22;17258;52.560;13.046;2023-06-22T22:08:08;25.40;47.40
30467;DHT22;17258;52.560;13.046;2023-06-22T22:18:12;25.30;47.80
30467;DHT22;17258;52.560;13.046;2023-06-22T22:28:16;25.20;47.90
30467;DHT22;17258;52.560;13.046;2023-06-22T22:38:16;25.10;48.80
30467;DHT22;17258;52.560;13.046;2023-06-22T22:48:17;24.90;48.50
30467;DHT22;17258;52.560;13.046;2023-06-22T22:58:18;24.70;48.80
30467;DHT22;17258;52.560;13.046;2023-06-22T23:08:19;24.50;49.00
30467;DHT22;17258;52.560;13.046;2023-06-22T23:18:21;24.40;49.50
30467;DHT22;17258;52.560;13.046;2023-06-22T23:28:21;24.30;50.10
30467;DHT22;17258;52.560;13.046;2023-06-22T23:38:22;24.20;50.00
30467;DHT22;17258;52.560;13.046;2023-06-22T23:48:23;24.10;50.20
30467;DHT22;17258;52.560;13.046;2023-06-22T23:58:24;24.00;50.40
